createdAt,value
2018-07-22T00:01:07.532Z,5.60
2018-07-22T00:03:42.025Z,6.97
2018-07-22T00:06:16.622Z,6.43
2018-07-22T00:08:46.268Z,6.53
2018-07-22T00:11:15.192Z,6.90
2018-07-22T00:13:44.147Z,6.70
2018-07-22T00:16:13.064Z,7.30
2018-07-22T00:18:41.983Z,7.77
2018-07-22T00:21:10.936Z,7.73
2018-07-22T00:23:39.860Z,8.47
2018-07-22T00:26:08.880Z,7.73
2018-07-22T00:28:38.559Z,8.40
2018-07-22T00:31:07.844Z,8.00
2018-07-22T00:33:37.494Z,7.80
2018-07-22T00:36:06.459Z,7.10
2018-07-22T00:38:35.426Z,7.57
2018-07-22T00:42:07.766Z,8.70
2018-07-22T00:44:36.774Z,9.87
2018-07-22T00:47:05.951Z,10.13
2018-07-22T00:49:34.898Z,10.37
2018-07-22T00:52:03.818Z,11.53
2018-07-22T00:54:33.531Z,13.57
2018-07-22T00:57:02.535Z,15.03
2018-07-22T00:59:31.504Z,15.07
2018-07-22T01:02:00.422Z,17.50
2018-07-22T01:04:29.338Z,18.53
2018-07-22T01:06:58.328Z,20.97
2018-07-22T01:09:27.275Z,20.13
2018-07-22T01:11:56.223Z,21.73
2018-07-22T01:14:25.194Z,23.30
2018-07-22T01:16:54.142Z,22.27
2018-07-22T01:19:23.028Z,22.40
2018-07-22T01:21:51.960Z,21.70
2018-07-22T01:24:21.481Z,23.57
2018-07-22T01:26:50.416Z,22.97
2018-07-22T01:29:19.378Z,24.07
2018-07-22T01:31:48.280Z,22.93
2018-07-22T01:34:17.222Z,23.57
2018-07-22T01:36:46.110Z,23.93
2018-07-22T01:39:15.045Z,23.60
2018-07-22T01:41:44.649Z,23.50
2018-07-22T01:44:13.532Z,23.73
2018-07-22T01:46:42.500Z,22.83
2018-07-22T01:49:11.382Z,22.83
2018-07-22T01:51:40.298Z,23.93
2018-07-22T01:54:09.245Z,25.77
2018-07-22T01:56:38.175Z,26.73
2018-07-22T01:59:07.290Z,26.83
2018-07-22T02:01:37.012Z,27.60
2018-07-22T02:04:06.002Z,25.80
2018-07-22T02:06:34.914Z,26.30
2018-07-22T02:09:04.254Z,25.47
2018-07-22T02:11:33.140Z,26.20
2018-07-22T02:14:02.308Z,27.13
2018-07-22T02:16:31.225Z,28.13
2018-07-22T02:19:00.138Z,27.30
2018-07-22T02:21:34.625Z,27.03
2018-07-22T02:24:03.534Z,27.10
2018-07-22T02:26:32.464Z,26.50
2018-07-22T02:29:02.377Z,29.60
2018-07-22T02:31:31.702Z,27.80
2018-07-22T02:34:00.715Z,27.80
2018-07-22T02:36:29.617Z,27.47
2018-07-22T02:38:58.560Z,30.87
2018-07-22T02:41:27.462Z,28.47
2018-07-22T02:43:56.617Z,29.17
2018-07-22T02:46:25.592Z,27.23
2018-07-22T02:48:55.084Z,27.83
2018-07-22T02:51:24.067Z,27.47
2018-07-22T02:53:53.418Z,28.63
2018-07-22T02:56:22.364Z,26.67
2018-07-22T02:58:51.334Z,26.73
2018-07-22T03:01:21.268Z,27.93
2018-07-22T03:03:50.213Z,29.00
2018-07-22T03:06:19.157Z,27.47
2018-07-22T03:08:48.147Z,27.20
2018-07-22T03:11:17.094Z,26.47
2018-07-22T03:13:45.997Z,23.97
2018-07-22T03:16:14.908Z,27.17
2018-07-22T03:18:43.828Z,24.23
2018-07-22T03:21:13.688Z,25.60
2018-07-22T03:23:42.629Z,25.17
2018-07-22T03:26:11.621Z,24.07
2018-07-22T03:28:40.614Z,24.43
2018-07-22T03:31:09.583Z,25.33
2018-07-22T03:33:38.514Z,24.63
2018-07-22T03:36:07.459Z,25.20
2018-07-22T03:38:36.452Z,26.63
2018-07-22T03:41:05.395Z,28.17
2018-07-22T03:43:34.337Z,27.03
2018-07-22T03:46:03.285Z,26.67
2018-07-22T03:48:32.186Z,28.60
2018-07-22T03:51:01.075Z,26.57
2018-07-22T03:53:30.022Z,26.73
2018-07-22T03:55:58.981Z,27.80
2018-07-22T03:58:27.944Z,26.67
2018-07-22T04:00:57.545Z,27.80
2018-07-22T04:03:26.479Z,25.53
2018-07-22T04:05:55.468Z,26.47
2018-07-22T04:08:24.367Z,25.47
2018-07-22T04:10:53.295Z,25.10
2018-07-22T04:13:22.223Z,23.17
2018-07-22T04:15:51.157Z,24.57
2018-07-22T04:18:20.095Z,24.27
2018-07-22T04:20:49.043Z,23.87
2018-07-22T04:23:17.961Z,23.63
2018-07-22T04:25:46.841Z,24.73
2018-07-22T04:28:15.732Z,23.10
2018-07-22T04:30:44.765Z,22.37
2018-07-22T04:33:13.679Z,21.23
2018-07-22T04:35:42.703Z,22.27
2018-07-22T04:38:11.605Z,21.10
2018-07-22T04:40:40.498Z,20.17
2018-07-22T04:43:09.475Z,18.80
2018-07-22T04:45:38.394Z,18.37
2018-07-22T04:48:07.322Z,19.13
2018-07-22T04:50:36.267Z,18.83
2018-07-22T04:53:05.293Z,17.93
2018-07-22T04:55:34.175Z,19.27
2018-07-22T04:58:03.201Z,17.77
2018-07-22T05:00:32.161Z,17.03
2018-07-22T05:03:01.105Z,17.00
2018-07-22T05:05:30.063Z,18.20
2018-07-22T05:07:59.072Z,17.47
2018-07-22T05:10:28.042Z,17.27
2018-07-22T05:12:57.007Z,16.93
2018-07-22T05:15:25.979Z,15.83
2018-07-22T05:17:54.970Z,15.93
2018-07-22T05:20:23.909Z,14.40
2018-07-22T05:22:52.891Z,14.27
2018-07-22T05:25:21.785Z,15.37
2018-07-22T05:27:50.682Z,15.00
2018-07-22T05:30:19.667Z,15.37
2018-07-22T05:32:48.567Z,14.50
2018-07-22T05:35:17.539Z,13.53
2018-07-22T05:37:46.555Z,13.53
2018-07-22T05:40:16.329Z,11.87
2018-07-22T05:42:45.263Z,13.07
2018-07-22T05:45:14.179Z,12.50
2018-07-22T05:47:43.242Z,13.10
2018-07-22T05:50:12.179Z,12.23
2018-07-22T05:52:41.117Z,12.73
2018-07-22T05:55:10.024Z,12.37
2018-07-22T05:57:39.019Z,12.00
2018-07-22T06:00:08.391Z,12.70
2018-07-22T06:02:37.397Z,12.70
2018-07-22T06:05:06.679Z,12.20
2018-07-22T06:07:35.579Z,12.07
2018-07-22T06:10:05.101Z,11.93
2018-07-22T06:12:34.006Z,11.50
2018-07-22T06:15:02.948Z,10.20
2018-07-22T06:17:31.883Z,10.97
2018-07-22T06:20:00.826Z,10.03
2018-07-22T06:22:29.729Z,10.03
2018-07-22T06:24:59.573Z,9.60
2018-07-22T06:27:28.468Z,10.27
2018-07-22T06:29:57.425Z,10.30
2018-07-22T06:32:26.419Z,10.30
2018-07-22T06:34:55.408Z,9.57
2018-07-22T06:37:24.291Z,9.80
2018-07-22T06:39:53.388Z,9.80
2018-07-22T06:42:22.315Z,9.70
2018-07-22T06:44:51.400Z,8.63
2018-07-22T06:47:20.332Z,8.87
2018-07-22T06:49:49.289Z,8.77
2018-07-22T06:52:18.203Z,8.83
2018-07-22T06:54:47.150Z,9.03
2018-07-22T06:57:16.983Z,8.60
2018-07-22T06:59:45.837Z,8.40
2018-07-22T07:02:14.796Z,7.60
2018-07-22T07:04:43.680Z,9.37
2018-07-22T07:07:12.599Z,8.37
2018-07-22T07:09:41.565Z,8.73
2018-07-22T07:12:10.537Z,8.20
2018-07-22T07:14:39.487Z,8.00
2018-07-22T07:17:08.463Z,8.53
2018-07-22T07:19:37.411Z,8.07
2018-07-22T07:22:07.031Z,8.13
2018-07-22T07:24:35.958Z,6.63
2018-07-22T07:27:04.943Z,8.00
2018-07-22T07:29:34.892Z,7.33
2018-07-22T07:32:03.944Z,8.63
2018-07-22T07:34:32.857Z,7.57
2018-07-22T07:37:01.754Z,8.27
2018-07-22T07:39:30.702Z,8.90
2018-07-22T07:41:59.660Z,8.57
2018-07-22T07:44:28.532Z,7.90
2018-07-22T07:46:57.493Z,8.67
2018-07-22T07:49:26.378Z,8.53
2018-07-22T07:51:55.352Z,9.10
2018-07-22T07:54:24.335Z,8.17
2018-07-22T07:56:53.220Z,7.93
2018-07-22T07:59:22.205Z,7.77
2018-07-22T08:01:51.101Z,7.13
2018-07-22T08:04:20.032Z,7.10
2018-07-22T08:06:49.005Z,8.70
2018-07-22T08:09:18.059Z,7.50
2018-07-22T08:11:49.075Z,9.77
2018-07-22T08:14:18.611Z,8.93
2018-07-22T08:16:47.536Z,8.87
2018-07-22T08:19:16.507Z,9.67
2018-07-22T08:21:45.454Z,10.50
2018-07-22T08:24:14.322Z,10.57
2018-07-22T08:26:43.311Z,10.70
2018-07-22T08:29:22.931Z,10.17
2018-07-22T08:31:51.887Z,8.60
2018-07-22T08:34:21.001Z,8.50
2018-07-22T08:36:50.195Z,10.47
2018-07-22T08:39:21.516Z,9.50
2018-07-22T08:41:51.806Z,11.17
2018-07-22T08:44:21.350Z,10.63
2018-07-22T08:46:50.280Z,11.07
2018-07-22T08:49:19.257Z,11.00
2018-07-22T08:51:48.182Z,9.43
2018-07-22T08:54:17.216Z,8.37
2018-07-22T08:56:46.376Z,7.10
2018-07-22T08:59:15.397Z,7.27
2018-07-22T09:01:44.288Z,6.57
2018-07-22T09:04:13.238Z,6.23
2018-07-22T09:06:42.241Z,5.70
2018-07-22T09:22:11.180Z,6.47
2018-07-22T09:24:40.115Z,7.07
2018-07-22T09:27:09.373Z,6.47
2018-07-22T09:29:38.192Z,7.13
2018-07-22T09:32:07.386Z,6.37
2018-07-22T09:34:37.990Z,7.97
2018-07-22T09:37:06.861Z,7.20
2018-07-22T09:39:35.765Z,7.27
2018-07-22T09:42:04.736Z,7.27
2018-07-22T09:44:33.650Z,7.33
2018-07-22T09:47:02.622Z,7.50
2018-07-22T09:49:32.286Z,6.57
2018-07-22T09:52:01.244Z,5.90
2018-07-22T09:54:31.528Z,5.70
2018-07-22T09:57:00.432Z,5.97
2018-07-22T09:59:29.315Z,5.80
2018-07-22T10:01:58.292Z,5.17
2018-07-22T10:04:27.267Z,5.73
2018-07-22T10:06:56.178Z,4.80
2018-07-22T10:09:25.086Z,5.30
2018-07-22T10:11:55.556Z,5.47
2018-07-22T10:14:24.521Z,6.00
2018-07-22T10:16:53.358Z,6.00
2018-07-22T10:19:22.284Z,6.07
2018-07-22T10:21:51.278Z,5.90
2018-07-22T10:24:20.192Z,6.70
2018-07-22T10:26:49.134Z,5.97
2018-07-22T10:29:18.050Z,5.80
2018-07-22T10:31:47.326Z,6.13
2018-07-22T10:34:16.348Z,6.57
2018-07-22T10:36:45.227Z,5.87
2018-07-22T10:39:14.136Z,6.80
2018-07-22T10:41:43.104Z,6.13
2018-07-22T10:44:12.038Z,6.17
2018-07-22T10:46:41.024Z,7.57
2018-07-22T10:49:09.984Z,7.13
2018-07-22T10:51:38.892Z,7.87
2018-07-22T10:54:07.850Z,8.37
2018-07-22T10:56:36.832Z,9.33
2018-07-22T10:59:05.795Z,7.93
2018-07-22T11:01:34.708Z,9.60
2018-07-22T11:04:03.705Z,10.33
2018-07-22T11:06:32.668Z,9.13
2018-07-22T11:09:01.615Z,8.80
2018-07-22T11:11:30.813Z,8.27
2018-07-22T11:13:59.703Z,9.80
2018-07-22T11:16:29.704Z,9.00
2018-07-22T11:18:58.677Z,8.97
2018-07-22T11:21:28.100Z,10.87
2018-07-22T11:23:57.116Z,10.27
2018-07-22T11:26:26.041Z,10.20
2018-07-22T11:28:55.985Z,9.10
2018-07-22T11:31:24.792Z,9.57
2018-07-22T11:33:53.760Z,10.13
2018-07-22T11:36:22.672Z,9.00
2018-07-22T11:38:51.604Z,9.20
2018-07-22T11:41:20.524Z,7.67
2018-07-22T11:43:49.779Z,6.13
2018-07-22T11:46:18.675Z,4.20
2018-07-22T11:48:47.592Z,4.03
2018-07-22T11:51:16.485Z,4.70
2018-07-22T11:53:46.393Z,4.33
2018-07-22T11:56:15.366Z,4.60
2018-07-22T11:58:44.382Z,3.67
2018-07-22T12:01:13.376Z,3.50
2018-07-22T12:03:42.257Z,3.73
2018-07-22T12:06:11.261Z,3.50
2018-07-22T12:08:40.213Z,4.00
2018-07-22T12:11:09.154Z,4.27
2018-07-22T12:13:38.050Z,4.17
2018-07-22T12:16:07.002Z,5.00
2018-07-22T12:18:35.888Z,6.53
2018-07-22T12:21:04.804Z,5.10
2018-07-22T12:23:33.697Z,6.47
2018-07-22T12:26:02.690Z,5.60
2018-07-22T12:28:31.630Z,4.60
2018-07-22T12:31:00.535Z,4.20
2018-07-22T12:33:29.456Z,5.73
2018-07-22T12:35:58.380Z,6.23
2018-07-22T12:38:27.316Z,5.63
2018-07-22T12:40:56.273Z,5.30
2018-07-22T12:43:25.196Z,4.97
2018-07-22T12:45:54.168Z,4.73
2018-07-22T12:48:23.563Z,4.27
2018-07-22T12:50:52.905Z,4.10
2018-07-22T12:53:21.798Z,4.43
2018-07-22T12:55:50.760Z,4.10
2018-07-22T12:58:19.608Z,3.97
2018-07-22T13:00:48.631Z,4.90
2018-07-22T13:03:17.556Z,4.70
2018-07-22T13:05:46.522Z,4.87
2018-07-22T13:08:15.412Z,4.53
2018-07-22T13:10:44.386Z,5.07
2018-07-22T13:13:13.381Z,4.90
2018-07-22T13:15:42.256Z,4.83
2018-07-22T13:18:12.018Z,4.80
2018-07-22T13:20:40.997Z,5.13
2018-07-22T13:23:10.812Z,4.77
2018-07-22T13:25:39.736Z,4.83
2018-07-22T13:28:08.712Z,4.23
2018-07-22T13:30:38.409Z,4.90
2018-07-22T13:33:07.334Z,4.67
2018-07-22T13:35:36.220Z,5.63
2018-07-22T13:38:05.166Z,5.33
2018-07-22T13:40:34.057Z,4.70
2018-07-22T13:43:03.071Z,5.10
2018-07-22T13:45:32.307Z,6.73
2018-07-22T13:48:01.107Z,5.50
2018-07-22T13:50:29.987Z,6.73
2018-07-22T13:52:58.978Z,5.73
2018-07-22T13:55:27.870Z,6.17
2018-07-22T13:57:57.630Z,6.93
2018-07-22T14:00:28.261Z,6.00
2018-07-22T14:02:58.501Z,5.73
2018-07-22T14:05:28.218Z,6.73
2018-07-22T14:07:57.345Z,7.20
2018-07-22T14:10:26.388Z,6.67
2018-07-22T14:12:58.709Z,5.67
2018-07-22T14:15:29.108Z,5.83
2018-07-22T14:17:58.028Z,5.00
2018-07-22T14:20:28.031Z,5.20
2018-07-22T14:22:56.991Z,6.47
2018-07-22T14:25:25.910Z,5.40
2018-07-22T14:27:54.947Z,5.50
2018-07-22T14:30:23.885Z,4.90
2018-07-22T14:32:52.792Z,6.07
2018-07-22T14:35:28.102Z,5.73
2018-07-22T14:37:57.053Z,5.73
2018-07-22T14:40:26.016Z,6.43
2018-07-22T14:42:54.946Z,7.20
2018-07-22T14:45:23.870Z,6.80
2018-07-22T14:47:52.754Z,6.57
2018-07-22T14:50:21.677Z,6.73
2018-07-22T14:52:50.612Z,6.20
2018-07-22T14:55:19.557Z,5.57
2018-07-22T14:57:48.564Z,5.73
2018-07-22T15:00:17.514Z,5.37
2018-07-22T15:02:47.543Z,7.10
2018-07-22T15:05:16.426Z,6.33
2018-07-22T15:07:45.310Z,6.10
2018-07-22T15:10:14.225Z,6.63
2018-07-22T15:12:43.696Z,7.27
2018-07-22T15:15:12.747Z,7.03
2018-07-22T15:17:41.696Z,6.97
2018-07-22T15:20:10.584Z,7.37
2018-07-22T15:22:39.539Z,8.20
2018-07-22T15:25:08.479Z,7.97
2018-07-22T15:27:37.752Z,7.87
2018-07-22T15:30:06.803Z,7.73
2018-07-22T15:32:35.793Z,9.00
2018-07-22T15:35:04.771Z,9.50
2018-07-22T15:37:34.361Z,8.63
2018-07-22T15:40:03.418Z,8.73
2018-07-22T15:42:32.306Z,8.53
2018-07-22T15:45:01.301Z,8.20
2018-07-22T15:47:30.235Z,8.73
2018-07-22T15:49:59.142Z,7.77
2018-07-22T15:52:28.109Z,9.13
2018-07-22T15:54:59.198Z,8.63
2018-07-22T15:57:28.082Z,7.27
2018-07-22T15:59:57.084Z,7.43
2018-07-22T16:02:25.962Z,10.00
2018-07-22T16:04:54.943Z,8.00
2018-07-22T16:07:23.832Z,7.87
2018-07-22T16:09:52.728Z,8.20
2018-07-22T16:12:21.636Z,8.23
2018-07-22T16:14:50.602Z,8.33
2018-07-22T16:17:19.528Z,7.60
2018-07-22T16:19:48.448Z,7.50
2018-07-22T16:22:17.404Z,6.97
2018-07-22T16:24:46.325Z,7.87
2018-07-22T16:27:15.257Z,7.90
2018-07-22T16:29:44.260Z,8.00
2018-07-22T16:32:13.173Z,6.70
2018-07-22T16:34:42.176Z,7.37
2018-07-22T16:37:11.120Z,7.63
2018-07-22T16:39:40.016Z,8.00
2018-07-22T16:42:08.928Z,7.10
2018-07-22T16:44:37.798Z,7.00
2018-07-22T16:47:06.743Z,7.23
2018-07-22T16:49:35.743Z,6.80
2018-07-22T16:52:04.705Z,7.60
2018-07-22T16:54:34.893Z,8.27
2018-07-22T16:57:03.875Z,7.90
2018-07-22T16:59:32.795Z,8.07
2018-07-22T17:02:01.701Z,7.37
2018-07-22T17:04:30.733Z,6.70
2018-07-22T17:06:59.844Z,6.70
2018-07-22T17:09:28.748Z,7.23
2018-07-22T17:12:00.024Z,6.87
2018-07-22T17:14:28.927Z,7.70
2018-07-22T17:16:57.853Z,7.80
2018-07-22T17:19:26.771Z,7.87
2018-07-22T17:21:55.789Z,7.87
2018-07-22T17:24:24.973Z,7.20
2018-07-22T17:26:54.131Z,7.03
2018-07-22T17:29:23.029Z,5.90
2018-07-22T17:31:51.981Z,6.67
2018-07-22T17:34:20.907Z,7.00
2018-07-22T17:36:49.879Z,7.10
2018-07-22T17:39:18.926Z,6.73
2018-07-22T17:41:47.856Z,6.97
2018-07-22T17:44:16.817Z,7.07
2018-07-22T17:46:45.736Z,6.87
2018-07-22T17:49:14.779Z,7.40
2018-07-22T17:51:44.315Z,6.53
2018-07-22T17:54:13.303Z,7.13
2018-07-22T17:56:42.182Z,6.40
2018-07-22T17:59:11.138Z,6.27
2018-07-22T18:01:40.060Z,6.53
2018-07-22T18:04:09.050Z,6.63
2018-07-22T18:06:38.027Z,6.60
2018-07-22T18:09:08.612Z,6.33
2018-07-22T18:11:37.787Z,6.70
2018-07-22T18:14:06.820Z,7.00
2018-07-22T18:16:36.135Z,6.33
2018-07-22T18:19:05.148Z,5.67
2018-07-22T18:21:34.733Z,5.90
2018-07-22T18:24:04.199Z,6.13
2018-07-22T18:26:33.137Z,5.73
2018-07-22T18:29:02.097Z,5.80
2018-07-22T18:31:31.038Z,6.10
2018-07-22T18:34:00.065Z,5.60
2018-07-22T18:36:29.015Z,5.97
2018-07-22T18:38:58.198Z,5.80
2018-07-22T18:41:27.178Z,5.90
2018-07-22T18:43:56.096Z,5.30
2018-07-22T18:46:25.286Z,6.03
2018-07-22T18:48:54.660Z,5.57
2018-07-22T18:51:23.669Z,5.53
2018-07-22T18:53:52.865Z,5.00
2018-07-22T18:56:22.982Z,5.63
2018-07-22T18:58:52.267Z,5.67
2018-07-22T19:01:21.532Z,5.40
2018-07-22T19:03:52.279Z,5.13
2018-07-22T19:06:21.701Z,6.10
2018-07-22T19:08:50.944Z,5.33
2018-07-22T19:11:20.168Z,5.57
2018-07-22T19:13:49.445Z,5.60
2018-07-22T19:16:25.254Z,5.37
2018-07-22T19:18:55.628Z,5.40
2018-07-22T19:21:25.000Z,5.10
2018-07-22T19:23:54.203Z,5.10
2018-07-22T19:26:23.468Z,5.10
2018-07-22T19:28:52.691Z,5.20
2018-07-22T19:31:22.018Z,5.47
2018-07-22T19:33:51.217Z,5.50
2018-07-22T19:36:20.520Z,4.93
2018-07-22T19:38:49.971Z,4.83
2018-07-22T19:41:19.182Z,5.27
2018-07-22T19:43:49.520Z,5.53
2018-07-22T19:46:18.965Z,5.20
2018-07-22T19:48:48.466Z,5.03
2018-07-22T19:51:17.747Z,4.40
2018-07-22T19:53:46.944Z,4.47
2018-07-22T19:56:16.291Z,5.20
2018-07-22T19:58:45.742Z,4.87
2018-07-22T20:01:15.001Z,5.47
2018-07-22T20:03:44.369Z,5.20
2018-07-22T20:06:13.616Z,5.80
2018-07-22T20:08:42.940Z,5.07
2018-07-22T20:11:12.187Z,5.60
2018-07-22T20:13:41.485Z,5.10
2018-07-22T20:16:11.136Z,5.40
2018-07-22T20:18:40.328Z,5.00
2018-07-22T20:21:09.565Z,5.87
2018-07-22T20:23:38.818Z,5.30
2018-07-22T20:26:07.894Z,5.60
2018-07-22T20:28:36.819Z,5.33
2018-07-22T20:31:06.224Z,5.27
2018-07-22T20:33:35.488Z,5.80
2018-07-22T20:36:04.751Z,5.87
2018-07-22T20:38:33.772Z,5.63
2018-07-22T20:41:03.063Z,4.97
2018-07-22T20:43:32.093Z,5.13
2018-07-22T20:46:01.032Z,6.57
2018-07-22T20:48:30.058Z,6.10
2018-07-22T20:50:59.337Z,6.20
2018-07-22T20:53:28.957Z,6.23
2018-07-22T20:55:57.968Z,6.17
2018-07-22T20:58:27.234Z,6.87
2018-07-22T21:00:56.231Z,6.70
2018-07-22T21:03:25.127Z,7.43
2018-07-22T21:05:54.203Z,7.00
2018-07-22T21:08:23.078Z,7.57
2018-07-22T21:10:52.025Z,7.53
2018-07-22T21:13:24.332Z,7.60
2018-07-22T21:15:53.271Z,7.27
2018-07-22T21:18:22.772Z,8.07
2018-07-22T21:20:51.760Z,8.27
2018-07-22T21:23:20.723Z,7.50
2018-07-22T21:25:49.629Z,8.07
2018-07-22T21:28:18.555Z,7.97
2018-07-22T21:30:47.767Z,8.80
2018-07-22T21:33:16.719Z,8.13
2018-07-22T21:35:45.617Z,8.30
2018-07-22T21:38:14.555Z,8.30
2018-07-22T21:40:43.538Z,8.30
2018-07-22T21:43:12.521Z,8.10
2018-07-22T21:45:41.795Z,7.43
2018-07-22T21:48:10.720Z,7.73
2018-07-22T21:50:39.701Z,8.37
2018-07-22T21:53:08.616Z,8.20
2018-07-22T21:55:37.571Z,8.00
2018-07-22T21:58:06.469Z,7.93
2018-07-22T22:00:40.791Z,9.03
2018-07-22T22:03:09.861Z,9.73
2018-07-22T22:05:38.845Z,8.70
2018-07-22T22:08:08.356Z,8.30
2018-07-22T22:10:37.421Z,8.97
2018-07-22T22:13:06.486Z,8.27
2018-07-22T22:15:35.605Z,7.93
2018-07-22T22:18:05.600Z,7.13
2018-07-22T22:20:34.681Z,7.70
2018-07-22T22:23:03.651Z,6.37
2018-07-22T22:25:32.943Z,7.10
2018-07-22T22:28:01.931Z,6.60
2018-07-22T22:30:30.998Z,6.97
2018-07-22T22:32:59.972Z,5.60
2018-07-22T22:35:28.949Z,6.00
2018-07-22T22:37:58.004Z,7.10
2018-07-22T22:40:27.005Z,6.30
2018-07-22T22:42:55.967Z,7.13
2018-07-22T22:45:24.969Z,6.63
2018-07-22T22:47:55.797Z,6.37
2018-07-22T22:50:24.821Z,7.37
2018-07-22T22:52:53.848Z,7.13
2018-07-22T22:55:22.807Z,7.73
2018-07-22T23:00:08.297Z,7.63
2018-07-22T23:02:38.176Z,8.67
2018-07-22T23:05:08.876Z,8.97
2018-07-22T23:07:37.909Z,8.67
2018-07-22T23:10:06.860Z,8.30
2018-07-22T23:12:36.470Z,8.30
2018-07-22T23:15:05.837Z,8.60
2018-07-22T23:17:34.851Z,7.27
2018-07-22T23:20:04.003Z,8.87
2018-07-22T23:22:33.119Z,8.37
2018-07-22T23:25:02.152Z,8.60
2018-07-22T23:27:31.170Z,8.20
2018-07-22T23:30:00.129Z,8.97
2018-07-22T23:32:29.117Z,8.27
2018-07-22T23:34:58.793Z,8.13
2018-07-22T23:37:27.786Z,8.03
2018-07-22T23:39:56.815Z,8.30
2018-07-22T23:42:26.255Z,9.33
2018-07-22T23:44:55.213Z,9.23
2018-07-22T23:47:24.226Z,9.17
2018-07-22T23:49:53.257Z,8.57
2018-07-22T23:52:22.279Z,9.00
2018-07-22T23:54:51.317Z,9.53
2018-07-22T23:57:20.291Z,8.77
2018-07-22T23:59:50.419Z,9.30
